sensor_id;sensor_type;location;lat;lon;timestamp;P1;durP1;ratioP1;P2;durP2;ratioP2
67090;SDS011;54007;55.818;49.058;2023-04-24T09:52:06;10.85;;;2.70;;
67090;SDS011;54007;55.818;49.058;2023-04-24T09:54:31;11.30;;;2.60;;
67090;SDS011;54007;55.818;49.058;2023-04-24T09:56:57;8.10;;;2.37;;
67090;SDS011;54007;55.818;49.058;2023-04-24T09:59:23;8.15;;;2.17;;
67090;SDS011;54007;55.818;49.058;2023-04-24T10:01:49;9.47;;;2.80;;
67090;SDS011;54007;55.818;49.058;2023-04-24T10:04:15;10.70;;;2.50;;
67090;SDS011;54007;55.818;49.058;2023-04-24T10:06:41;7.08;;;2.20;;
67090;SDS011;54007;55.818;49.058;2023-04-24T10:09:06;12.07;;;2.60;;
67090;SDS011;54007;55.818;49.058;2023-04-24T10:11:32;9.68;;;2.50;;
67090;SDS011;54007;55.818;49.058;2023-04-24T10:13:58;10.37;;;3.60;;
67090;SDS011;54007;55.818;49.058;2023-04-24T10:16:25;12.90;;;2.67;;
67090;SDS011;54007;55.818;49.058;2023-04-24T10:18:49;10.72;;;2.20;;
67090;SDS011;54007;55.818;49.058;2023-04-24T10:21:16;7.93;;;2.40;;
67090;SDS011;54007;55.818;49.058;2023-04-24T10:23:41;6.72;;;2.10;;
67090;SDS011;54007;55.818;49.058;2023-04-24T10:26:08;7.17;;;2.30;;
67090;SDS011;54007;55.818;49.058;2023-04-24T10:28:33;8.38;;;2.70;;
67090;SDS011;54007;55.818;49.058;2023-04-24T10:30:59;6.97;;;2.52;;
67090;SDS011;54007;55.818;49.058;2023-04-24T10:33:24;6.73;;;2.20;;
67090;SDS011;54007;55.818;49.058;2023-04-24T10:35:50;10.98;;;2.58;;
67090;SDS011;54007;55.818;49.058;2023-04-24T10:38:22;5.37;;;2.20;;
67090;SDS011;54007;55.818;49.058;2023-04-24T10:40:45;8.68;;;2.62;;
67090;SDS011;54007;55.818;49.058;2023-04-24T10:43:10;6.60;;;2.20;;
67090;SDS011;54007;55.818;49.058;2023-04-24T10:45:37;9.03;;;2.37;;
67090;SDS011;54007;55.818;49.058;2023-04-24T10:48:06;7.97;;;2.42;;
67090;SDS011;54007;55.818;49.058;2023-04-24T10:50:47;7.87;;;2.42;;
67090;SDS011;54007;55.818;49.058;2023-04-24T10:53:16;4.72;;;2.08;;
67090;SDS011;54007;55.818;49.058;2023-04-24T10:55:42;7.60;;;2.10;;
67090;SDS011;54007;55.818;49.058;2023-04-24T10:58:07;4.87;;;2.20;;
67090;SDS011;54007;55.818;49.058;2023-04-24T11:00:33;7.55;;;2.30;;
67090;SDS011;54007;55.818;49.058;2023-04-24T11:02:58;8.50;;;2.30;;
67090;SDS011;54007;55.818;49.058;2023-04-24T11:08:13;8.50;;;2.70;;
67090;SDS011;54007;55.818;49.058;2023-04-24T11:10:45;6.03;;;2.40;;
67090;SDS011;54007;55.818;49.058;2023-04-24T11:13:13;6.92;;;2.15;;
67090;SDS011;54007;55.818;49.058;2023-04-24T11:15:36;7.50;;;2.30;;
67090;SDS011;54007;55.818;49.058;2023-04-24T11:18:02;8.43;;;2.57;;
67090;SDS011;54007;55.818;49.058;2023-04-24T11:20:28;6.35;;;2.47;;
67090;SDS011;54007;55.818;49.058;2023-04-24T11:22:54;6.20;;;2.10;;
67090;SDS011;54007;55.818;49.058;2023-04-24T11:25:20;5.87;;;2.10;;
67090;SDS011;54007;55.818;49.058;2023-04-24T11:27:46;7.67;;;2.72;;
67090;SDS011;54007;55.818;49.058;2023-04-24T11:30:11;8.37;;;2.33;;
67090;SDS011;54007;55.818;49.058;2023-04-24T11:32:41;10.98;;;2.40;;
67090;SDS011;54007;55.818;49.058;2023-04-24T11:35:07;7.75;;;2.00;;
67090;SDS011;54007;55.818;49.058;2023-04-24T11:37:39;6.93;;;2.47;;
67090;SDS011;54007;55.818;49.058;2023-04-24T11:40:04;8.20;;;2.30;;
67090;SDS011;54007;55.818;49.058;2023-04-24T11:42:34;9.20;;;2.17;;
67090;SDS011;54007;55.818;49.058;2023-04-24T11:44:59;8.30;;;2.35;;
67090;SDS011;54007;55.818;49.058;2023-04-24T11:47:28;12.67;;;2.50;;
67090;SDS011;54007;55.818;49.058;2023-04-24T11:49:53;7.47;;;3.08;;
67090;SDS011;54007;55.818;49.058;2023-04-24T11:52:19;6.47;;;2.30;;
67090;SDS011;54007;55.818;49.058;2023-04-24T11:54:48;6.27;;;2.27;;
67090;SDS011;54007;55.818;49.058;2023-04-24T11:57:13;6.42;;;2.55;;
67090;SDS011;54007;55.818;49.058;2023-04-24T11:59:39;7.05;;;2.65;;
67090;SDS011;54007;55.818;49.058;2023-04-24T12:02:05;6.83;;;2.30;;
67090;SDS011;54007;55.818;49.058;2023-04-24T12:04:38;5.55;;;2.15;;
67090;SDS011;54007;55.818;49.058;2023-04-24T12:07:02;8.43;;;2.50;;
67090;SDS011;54007;55.818;49.058;2023-04-24T12:09:25;7.28;;;2.60;;
67090;SDS011;54007;55.818;49.058;2023-04-24T12:11:54;6.42;;;2.27;;
67090;SDS011;54007;55.818;49.058;2023-04-24T12:14:20;6.92;;;2.10;;
67090;SDS011;54007;55.818;49.058;2023-04-24T12:16:47;6.83;;;2.30;;
67090;SDS011;54007;55.818;49.058;2023-04-24T12:19:11;8.05;;;2.58;;
67090;SDS011;54007;55.818;49.058;2023-04-24T12:21:37;15.17;;;2.70;;
67090;SDS011;54007;55.818;49.058;2023-04-24T12:24:05;7.05;;;2.30;;
67090;SDS011;54007;55.818;49.058;2023-04-24T12:26:33;7.87;;;2.52;;
67090;SDS011;54007;55.818;49.058;2023-04-24T12:29:05;11.87;;;2.40;;
67090;SDS011;54007;55.818;49.058;2023-04-24T12:31:31;9.20;;;2.10;;
67090;SDS011;54007;55.818;49.058;2023-04-24T12:33:56;6.95;;;2.58;;
67090;SDS011;54007;55.818;49.058;2023-04-24T12:39:25;10.15;;;2.40;;
67090;SDS011;54007;55.818;49.058;2023-04-24T12:41:54;11.35;;;2.30;;
67090;SDS011;54007;55.818;49.058;2023-04-24T12:44:16;8.97;;;2.07;;
67090;SDS011;54007;55.818;49.058;2023-04-24T12:49:45;6.97;;;2.52;;
67090;SDS011;54007;55.818;49.058;2023-04-24T12:55:13;7.58;;;2.30;;
67090;SDS011;54007;55.818;49.058;2023-04-24T12:57:39;5.47;;;2.20;;
67090;SDS011;54007;55.818;49.058;2023-04-24T13:00:05;8.30;;;3.07;;
67090;SDS011;54007;55.818;49.058;2023-04-24T13:02:30;7.70;;;2.52;;
67090;SDS011;54007;55.818;49.058;2023-04-24T13:04:56;8.60;;;2.20;;
67090;SDS011;54007;55.818;49.058;2023-04-24T13:07:22;8.80;;;2.33;;
67090;SDS011;54007;55.818;49.058;2023-04-24T13:09:48;9.13;;;2.30;;
67090;SDS011;54007;55.818;49.058;2023-04-24T13:12:14;8.23;;;2.30;;
67090;SDS011;54007;55.818;49.058;2023-04-24T13:14:39;11.68;;;2.80;;
67090;SDS011;54007;55.818;49.058;2023-04-24T13:17:05;6.40;;;2.40;;
67090;SDS011;54007;55.818;49.058;2023-04-24T13:19:35;7.47;;;2.08;;
67090;SDS011;54007;55.818;49.058;2023-04-24T13:21:57;13.20;;;2.50;;
67090;SDS011;54007;55.818;49.058;2023-04-24T13:24:23;10.63;;;2.20;;
67090;SDS011;54007;55.818;49.058;2023-04-24T13:26:52;10.85;;;2.95;;
67090;SDS011;54007;55.818;49.058;2023-04-24T13:29:17;6.22;;;2.50;;
67090;SDS011;54007;55.818;49.058;2023-04-24T13:31:43;7.87;;;2.50;;
67090;SDS011;54007;55.818;49.058;2023-04-24T13:34:08;8.35;;;2.17;;
67090;SDS011;54007;55.818;49.058;2023-04-24T13:36:34;7.20;;;2.30;;
67090;SDS011;54007;55.818;49.058;2023-04-24T13:39:00;15.13;;;2.83;;
67090;SDS011;54007;55.818;49.058;2023-04-24T13:41:26;7.50;;;2.20;;
67090;SDS011;54007;55.818;49.058;2023-04-24T13:46:50;9.43;;;2.45;;
67090;SDS011;54007;55.818;49.058;2023-04-24T13:49:14;7.70;;;2.25;;
67090;SDS011;54007;55.818;49.058;2023-04-24T13:51:40;6.53;;;2.40;;
67090;SDS011;54007;55.818;49.058;2023-04-24T13:54:06;7.30;;;2.55;;
67090;SDS011;54007;55.818;49.058;2023-04-24T13:56:32;12.73;;;5.47;;
67090;SDS011;54007;55.818;49.058;2023-04-24T13:58:58;10.08;;;2.40;;
67090;SDS011;54007;55.818;49.058;2023-04-24T14:01:23;5.20;;;2.10;;
67090;SDS011;54007;55.818;49.058;2023-04-24T14:03:50;9.20;;;2.03;;
67090;SDS011;54007;55.818;49.058;2023-04-24T14:06:15;7.70;;;2.47;;
67090;SDS011;54007;55.818;49.058;2023-04-24T14:08:41;7.10;;;3.23;;
67090;SDS011;54007;55.818;49.058;2023-04-24T14:11:07;10.20;;;2.60;;
67090;SDS011;54007;55.818;49.058;2023-04-24T14:13:33;7.97;;;2.65;;
67090;SDS011;54007;55.818;49.058;2023-04-24T14:15:59;8.40;;;2.13;;
67090;SDS011;54007;55.818;49.058;2023-04-24T14:18:24;5.65;;;2.10;;
67090;SDS011;54007;55.818;49.058;2023-04-24T14:20:50;9.07;;;2.37;;
67090;SDS011;54007;55.818;49.058;2023-04-24T14:23:16;8.20;;;2.40;;
67090;SDS011;54007;55.818;49.058;2023-04-24T14:25:42;7.03;;;2.40;;
67090;SDS011;54007;55.818;49.058;2023-04-24T14:28:08;11.27;;;2.40;;
67090;SDS011;54007;55.818;49.058;2023-04-24T14:30:33;10.35;;;2.37;;
67090;SDS011;54007;55.818;49.058;2023-04-24T14:32:59;6.00;;;2.37;;
67090;SDS011;54007;55.818;49.058;2023-04-24T14:35:25;6.70;;;2.27;;
67090;SDS011;54007;55.818;49.058;2023-04-24T14:37:51;5.92;;;2.20;;
67090;SDS011;54007;55.818;49.058;2023-04-24T14:40:17;5.00;;;2.13;;
67090;SDS011;54007;55.818;49.058;2023-04-24T14:42:43;9.50;;;2.80;;
67090;SDS011;54007;55.818;49.058;2023-04-24T14:45:09;6.53;;;2.90;;
67090;SDS011;54007;55.818;49.058;2023-04-24T14:47:35;6.85;;;2.22;;
67090;SDS011;54007;55.818;49.058;2023-04-24T14:50:00;10.28;;;2.55;;
67090;SDS011;54007;55.818;49.058;2023-04-24T14:52:26;14.57;;;2.70;;
67090;SDS011;54007;55.818;49.058;2023-04-24T14:54:52;14.15;;;2.65;;
67090;SDS011;54007;55.818;49.058;2023-04-24T14:57:18;9.98;;;2.90;;
67090;SDS011;54007;55.818;49.058;2023-04-24T14:59:44;17.07;;;4.13;;
67090;SDS011;54007;55.818;49.058;2023-04-24T15:02:13;14.50;;;3.65;;
67090;SDS011;54007;55.818;49.058;2023-04-24T15:04:45;16.02;;;3.37;;
67090;SDS011;54007;55.818;49.058;2023-04-24T15:07:11;15.87;;;3.60;;
67090;SDS011;54007;55.818;49.058;2023-04-24T15:09:37;15.08;;;4.00;;
67090;SDS011;54007;55.818;49.058;2023-04-24T15:12:03;20.33;;;3.47;;
67090;SDS011;54007;55.818;49.058;2023-04-24T15:14:29;16.65;;;3.85;;
67090;SDS011;54007;55.818;49.058;2023-04-24T15:16:55;15.93;;;3.85;;
67090;SDS011;54007;55.818;49.058;2023-04-24T15:19:20;17.50;;;4.63;;
67090;SDS011;54007;55.818;49.058;2023-04-24T15:21:46;22.37;;;5.03;;
67090;SDS011;54007;55.818;49.058;2023-04-24T15:24:12;20.23;;;6.80;;
67090;SDS011;54007;55.818;49.058;2023-04-24T15:26:38;22.30;;;6.45;;
67090;SDS011;54007;55.818;49.058;2023-04-24T15:29:04;31.65;;;7.17;;
67090;SDS011;54007;55.818;49.058;2023-04-24T15:31:30;34.97;;;8.40;;
67090;SDS011;54007;55.818;49.058;2023-04-24T15:33:56;25.43;;;7.47;;
67090;SDS011;54007;55.818;49.058;2023-04-24T15:36:21;31.67;;;9.50;;
67090;SDS011;54007;55.818;49.058;2023-04-24T15:38:47;32.67;;;8.03;;
67090;SDS011;54007;55.818;49.058;2023-04-24T15:41:13;29.77;;;10.53;;
67090;SDS011;54007;55.818;49.058;2023-04-24T15:43:39;29.80;;;11.13;;
67090;SDS011;54007;55.818;49.058;2023-04-24T15:46:05;30.00;;;13.45;;
67090;SDS011;54007;55.818;49.058;2023-04-24T15:48:31;35.70;;;15.77;;
67090;SDS011;54007;55.818;49.058;2023-04-24T15:50:56;41.63;;;19.45;;
67090;SDS011;54007;55.818;49.058;2023-04-24T15:53:22;67.53;;;27.95;;
67090;SDS011;54007;55.818;49.058;2023-04-24T15:55:51;67.43;;;26.00;;
67090;SDS011;54007;55.818;49.058;2023-04-24T15:58:17;58.30;;;22.67;;
67090;SDS011;54007;55.818;49.058;2023-04-24T16:00:42;56.65;;;23.10;;
67090;SDS011;54007;55.818;49.058;2023-04-24T16:03:08;70.10;;;20.80;;
67090;SDS011;54007;55.818;49.058;2023-04-24T16:05:34;56.30;;;21.70;;
67090;SDS011;54007;55.818;49.058;2023-04-24T16:08:00;32.93;;;9.60;;
67090;SDS011;54007;55.818;49.058;2023-04-24T16:10:26;16.12;;;4.75;;
67090;SDS011;54007;55.818;49.058;2023-04-24T16:12:52;15.25;;;4.00;;
67090;SDS011;54007;55.818;49.058;2023-04-24T16:15:18;16.00;;;3.93;;
67090;SDS011;54007;55.818;49.058;2023-04-24T16:17:43;23.87;;;4.42;;
67090;SDS011;54007;55.818;49.058;2023-04-24T16:20:13;13.97;;;4.17;;
67090;SDS011;54007;55.818;49.058;2023-04-24T16:22:45;15.38;;;4.33;;
67090;SDS011;54007;55.818;49.058;2023-04-24T16:25:11;35.98;;;5.80;;
67090;SDS011;54007;55.818;49.058;2023-04-24T16:27:36;11.73;;;3.80;;
67090;SDS011;54007;55.818;49.058;2023-04-24T16:30:02;14.50;;;3.85;;
67090;SDS011;54007;55.818;49.058;2023-04-24T16:32:28;12.58;;;3.67;;
67090;SDS011;54007;55.818;49.058;2023-04-24T16:34:54;10.43;;;3.93;;
67090;SDS011;54007;55.818;49.058;2023-04-24T16:37:20;11.73;;;3.87;;
67090;SDS011;54007;55.818;49.058;2023-04-24T16:39:46;18.52;;;4.45;;
67090;SDS011;54007;55.818;49.058;2023-04-24T16:42:12;14.28;;;4.50;;
67090;SDS011;54007;55.818;49.058;2023-04-24T16:44:38;10.13;;;3.90;;
67090;SDS011;54007;55.818;49.058;2023-04-24T16:47:04;6.70;;;3.87;;
67090;SDS011;54007;55.818;49.058;2023-04-24T16:49:29;12.70;;;4.08;;
67090;SDS011;54007;55.818;49.058;2023-04-24T16:51:55;11.48;;;4.08;;
67090;SDS011;54007;55.818;49.058;2023-04-24T16:54:21;14.63;;;3.97;;
67090;SDS011;54007;55.818;49.058;2023-04-24T16:56:47;17.48;;;7.62;;
67090;SDS011;54007;55.818;49.058;2023-04-24T16:59:12;14.83;;;4.50;;
67090;SDS011;54007;55.818;49.058;2023-04-24T17:01:38;12.60;;;4.10;;
67090;SDS011;54007;55.818;49.058;2023-04-24T17:04:04;11.48;;;4.40;;
67090;SDS011;54007;55.818;49.058;2023-04-24T17:06:30;12.33;;;4.77;;
67090;SDS011;54007;55.818;49.058;2023-04-24T17:08:56;12.30;;;4.42;;
67090;SDS011;54007;55.818;49.058;2023-04-24T17:11:22;8.30;;;4.20;;
67090;SDS011;54007;55.818;49.058;2023-04-24T17:13:47;12.93;;;4.87;;
67090;SDS011;54007;55.818;49.058;2023-04-24T17:16:13;13.85;;;5.28;;
67090;SDS011;54007;55.818;49.058;2023-04-24T17:18:39;10.88;;;4.10;;
67090;SDS011;54007;55.818;49.058;2023-04-24T17:21:05;11.38;;;4.40;;
67090;SDS011;54007;55.818;49.058;2023-04-24T17:23:31;10.10;;;4.30;;
67090;SDS011;54007;55.818;49.058;2023-04-24T17:25:57;17.23;;;4.60;;
67090;SDS011;54007;55.818;49.058;2023-04-24T17:28:24;17.23;;;4.58;;
67090;SDS011;54007;55.818;49.058;2023-04-24T17:30:48;12.47;;;4.15;;
67090;SDS011;54007;55.818;49.058;2023-04-24T17:33:14;7.60;;;4.33;;
67090;SDS011;54007;55.818;49.058;2023-04-24T17:35:40;11.07;;;4.20;;
67090;SDS011;54007;55.818;49.058;2023-04-24T17:38:10;12.95;;;3.90;;
67090;SDS011;54007;55.818;49.058;2023-04-24T17:40:42;11.05;;;4.45;;
67090;SDS011;54007;55.818;49.058;2023-04-24T17:43:08;9.13;;;4.03;;
67090;SDS011;54007;55.818;49.058;2023-04-24T17:45:33;8.58;;;3.92;;
67090;SDS011;54007;55.818;49.058;2023-04-24T17:47:59;12.73;;;4.03;;
67090;SDS011;54007;55.818;49.058;2023-04-24T17:50:25;10.38;;;3.90;;
67090;SDS011;54007;55.818;49.058;2023-04-24T17:52:51;10.88;;;4.12;;
67090;SDS011;54007;55.818;49.058;2023-04-24T17:55:17;17.53;;;4.80;;
67090;SDS011;54007;55.818;49.058;2023-04-24T17:57:43;11.22;;;4.10;;
67090;SDS011;54007;55.818;49.058;2023-04-24T18:00:09;10.72;;;4.42;;
67090;SDS011;54007;55.818;49.058;2023-04-24T18:02:34;10.98;;;4.03;;
67090;SDS011;54007;55.818;49.058;2023-04-24T18:05:00;15.80;;;4.35;;
67090;SDS011;54007;55.818;49.058;2023-04-24T18:07:26;11.18;;;4.25;;
67090;SDS011;54007;55.818;49.058;2023-04-24T18:09:52;19.32;;;4.70;;
67090;SDS011;54007;55.818;49.058;2023-04-24T18:12:18;10.32;;;3.95;;
67090;SDS011;54007;55.818;49.058;2023-04-24T18:14:44;14.23;;;4.60;;
67090;SDS011;54007;55.818;49.058;2023-04-24T18:17:09;14.95;;;4.37;;
67090;SDS011;54007;55.818;49.058;2023-04-24T18:19:35;13.50;;;4.42;;
67090;SDS011;54007;55.818;49.058;2023-04-24T18:22:01;8.07;;;3.53;;
67090;SDS011;54007;55.818;49.058;2023-04-24T18:24:27;14.63;;;4.45;;
67090;SDS011;54007;55.818;49.058;2023-04-24T18:26:53;11.03;;;3.62;;
67090;SDS011;54007;55.818;49.058;2023-04-24T18:29:19;12.97;;;4.67;;
67090;SDS011;54007;55.818;49.058;2023-04-24T18:31:45;12.78;;;4.30;;
67090;SDS011;54007;55.818;49.058;2023-04-24T18:34:11;10.75;;;3.72;;
67090;SDS011;54007;55.818;49.058;2023-04-24T18:36:37;12.75;;;4.37;;
67090;SDS011;54007;55.818;49.058;2023-04-24T18:39:03;10.60;;;3.57;;
67090;SDS011;54007;55.818;49.058;2023-04-24T18:41:29;12.70;;;4.42;;
67090;SDS011;54007;55.818;49.058;2023-04-24T18:43:55;13.87;;;4.07;;
67090;SDS011;54007;55.818;49.058;2023-04-24T18:46:20;10.43;;;4.10;;
67090;SDS011;54007;55.818;49.058;2023-04-24T18:48:46;10.60;;;4.65;;
67090;SDS011;54007;55.818;49.058;2023-04-24T18:51:12;12.07;;;4.50;;
67090;SDS011;54007;55.818;49.058;2023-04-24T18:53:38;13.70;;;4.20;;
67090;SDS011;54007;55.818;49.058;2023-04-24T18:56:04;10.35;;;4.20;;
67090;SDS011;54007;55.818;49.058;2023-04-24T18:58:36;20.50;;;5.93;;
67090;SDS011;54007;55.818;49.058;2023-04-24T19:01:02;22.67;;;5.97;;
67090;SDS011;54007;55.818;49.058;2023-04-24T19:03:28;17.32;;;4.33;;
67090;SDS011;54007;55.818;49.058;2023-04-24T19:05:54;14.10;;;4.80;;
